Camden, Michigan
Current Conditions -  °F | °C
As of 3:35 AM on Sunday 23 Nov 2014 (Local Time) from KJYM Reporting Station
Light Rain Light Rain  
Wind Chill:   Ceiling: 2500
Heat Index:   Visibility: 7mi
Dew Point:   Wind: 6mph
Humidity: 93%   Direction: 200°SSW
Pressure: 29.94"   Gusts: NA
Location:  41.75°N, 84.76°W
Report Text: KJYM 230835Z AUTO 20005KT 7SM -RA SCT020 OVC025 09/08 A2994 RMK AO2 T00880078
Loading
Personal Weather Stations






























Interactive Weather Map New forecast layout! Learn more

10-Day Weather Forecast

Advertisements
Track Severe Weather on mobile